Terminal Aerodrome Forecast
Issued by NWS Charleston, SC

Home | Current Version | Previous Version | Text Only | Print | Product List | Glossary On
Versions: 1 2 3 4 5 6 7 8 9 10 11 12 13 14
000
FTUS42 KCHS 270821 AAC
TAFCHS
TAF AMD
KCHS 270821Z 2708/2806 16004KT P6SM FEW030 BKN150
     FM271300 17009KT P6SM SCT040
     FM280000 18004KT P6SM FEW025=

USA.gov is the U.S. government's official web portal to all federal, state and local government web resources and services.